sensor_id;sensor_type;location;lat;lon;timestamp;pressure;altitude;pressure_sealevel;temperature;humidity
54329;BME280;40710;51.120;13.136;2022-12-07T00:02:13;99205.84;;;7.66;62.25
54329;BME280;40710;51.120;13.136;2022-12-07T00:04:38;99198.00;;;7.85;61.96
54329;BME280;40710;51.120;13.136;2022-12-07T00:07:02;99191.31;;;8.18;60.91
54329;BME280;40710;51.120;13.136;2022-12-07T00:09:28;99190.25;;;8.22;60.62
54329;BME280;40710;51.120;13.136;2022-12-07T00:11:53;99184.78;;;7.88;61.32
54329;BME280;40710;51.120;13.136;2022-12-07T00:14:18;99188.19;;;8.09;61.18
54329;BME280;40710;51.120;13.136;2022-12-07T00:16:44;99201.66;;;7.21;63.00
54329;BME280;40710;51.120;13.136;2022-12-07T00:19:10;99191.81;;;7.67;62.48
54329;BME280;40710;51.120;13.136;2022-12-07T00:21:36;99195.50;;;7.22;63.27
54329;BME280;40710;51.120;13.136;2022-12-07T00:24:02;99199.88;;;7.22;63.52
54329;BME280;40710;51.120;13.136;2022-12-07T00:26:29;99191.84;;;6.84;64.65
54329;BME280;40710;51.120;13.136;2022-12-07T00:28:57;99189.19;;;6.85;64.62
54329;BME280;40710;51.120;13.136;2022-12-07T00:31:24;99202.84;;;6.92;64.45
54329;BME280;40710;51.120;13.136;2022-12-07T00:33:50;99195.94;;;6.69;65.21
54329;BME280;40710;51.120;13.136;2022-12-07T00:36:17;99191.19;;;7.21;63.50
54329;BME280;40710;51.120;13.136;2022-12-07T00:38:42;99187.97;;;6.94;64.07
54329;BME280;40710;51.120;13.136;2022-12-07T00:41:15;99170.56;;;7.35;63.20
54329;BME280;40710;51.120;13.136;2022-12-07T00:43:41;99193.00;;;6.10;65.77
54329;BME280;40710;51.120;13.136;2022-12-07T00:46:06;99182.03;;;7.11;64.36
54329;BME280;40710;51.120;13.136;2022-12-07T00:48:31;99186.59;;;6.63;65.33
54329;BME280;40710;51.120;13.136;2022-12-07T00:50:56;99176.28;;;6.82;63.59
54329;BME280;40710;51.120;13.136;2022-12-07T00:53:21;99181.09;;;6.49;65.64
54329;BME280;40710;51.120;13.136;2022-12-07T00:55:46;99173.50;;;6.65;64.85
54329;BME280;40710;51.120;13.136;2022-12-07T00:58:11;99173.97;;;6.52;65.40
54329;BME280;40710;51.120;13.136;2022-12-07T01:00:38;99173.50;;;6.65;64.94
54329;BME280;40710;51.120;13.136;2022-12-07T01:03:05;99162.63;;;7.16;62.14
54329;BME280;40710;51.120;13.136;2022-12-07T01:05:29;99158.19;;;7.18;63.15
54329;BME280;40710;51.120;13.136;2022-12-07T01:07:54;99161.69;;;7.19;62.83
54329;BME280;40710;51.120;13.136;2022-12-07T01:10:18;99161.53;;;7.22;62.67
54329;BME280;40710;51.120;13.136;2022-12-07T01:12:43;99147.69;;;7.41;61.90
54329;BME280;40710;51.120;13.136;2022-12-07T01:15:08;99167.13;;;6.28;64.47
54329;BME280;40710;51.120;13.136;2022-12-07T01:17:32;99169.16;;;6.41;64.61
54329;BME280;40710;51.120;13.136;2022-12-07T01:19:57;99180.22;;;6.02;65.42
54329;BME280;40710;51.120;13.136;2022-12-07T01:22:21;99166.31;;;6.70;63.35
54329;BME280;40710;51.120;13.136;2022-12-07T01:24:46;99166.59;;;6.84;62.73
54329;BME280;40710;51.120;13.136;2022-12-07T01:27:11;99170.50;;;6.74;63.67
54329;BME280;40710;51.120;13.136;2022-12-07T01:29:36;99173.38;;;7.10;62.84
54329;BME280;40710;51.120;13.136;2022-12-07T01:32:00;99168.06;;;6.91;62.64
54329;BME280;40710;51.120;13.136;2022-12-07T01:34:25;99168.34;;;6.84;62.52
54329;BME280;40710;51.120;13.136;2022-12-07T01:36:49;99172.44;;;6.24;65.02
54329;BME280;40710;51.120;13.136;2022-12-07T01:39:14;99174.09;;;6.49;65.42
54329;BME280;40710;51.120;13.136;2022-12-07T01:41:41;99161.44;;;6.60;63.66
54329;BME280;40710;51.120;13.136;2022-12-07T01:44:28;99162.34;;;7.24;62.49
54329;BME280;40710;51.120;13.136;2022-12-07T01:46:59;99167.94;;;6.72;63.25
54329;BME280;40710;51.120;13.136;2022-12-07T01:52:17;99157.16;;;7.23;62.77
54329;BME280;40710;51.120;13.136;2022-12-07T01:54:45;99136.91;;;8.24;59.70
54329;BME280;40710;51.120;13.136;2022-12-07T01:57:13;99164.78;;;6.64;62.28
54329;BME280;40710;51.120;13.136;2022-12-07T01:59:41;99163.72;;;6.48;64.50
54329;BME280;40710;51.120;13.136;2022-12-07T02:02:17;99165.00;;;6.59;63.52
54329;BME280;40710;51.120;13.136;2022-12-07T02:04:43;99175.28;;;5.95;65.64
54329;BME280;40710;51.120;13.136;2022-12-07T02:07:08;99152.25;;;7.35;62.42
54329;BME280;40710;51.120;13.136;2022-12-07T02:09:33;99150.03;;;7.06;62.48
54329;BME280;40710;51.120;13.136;2022-12-07T02:12:01;99159.19;;;6.07;66.06
54329;BME280;40710;51.120;13.136;2022-12-07T02:14:26;99138.78;;;7.45;61.53
54329;BME280;40710;51.120;13.136;2022-12-07T02:17:14;99145.09;;;6.35;64.53
54329;BME280;40710;51.120;13.136;2022-12-07T02:20:00;99139.31;;;6.49;63.43
54329;BME280;40710;51.120;13.136;2022-12-07T02:25:51;99132.28;;;6.51;64.46
54329;BME280;40710;51.120;13.136;2022-12-07T02:28:30;99140.47;;;5.96;64.56
54329;BME280;40710;51.120;13.136;2022-12-07T02:31:03;99122.00;;;6.02;64.29
54329;BME280;40710;51.120;13.136;2022-12-07T02:33:41;99133.88;;;5.62;64.89
54329;BME280;40710;51.120;13.136;2022-12-07T02:36:14;99135.88;;;5.79;64.96
54329;BME280;40710;51.120;13.136;2022-12-07T02:38:55;99108.09;;;6.88;61.35
54329;BME280;40710;51.120;13.136;2022-12-07T02:41:29;99116.88;;;5.75;64.68
54329;BME280;40710;51.120;13.136;2022-12-07T02:44:01;99118.84;;;6.16;64.04
54329;BME280;40710;51.120;13.136;2022-12-07T02:46:42;99097.53;;;6.91;62.02
54329;BME280;40710;51.120;13.136;2022-12-07T02:49:10;99101.63;;;6.34;62.35
54329;BME280;40710;51.120;13.136;2022-12-07T02:51:39;99099.00;;;6.76;61.63
54329;BME280;40710;51.120;13.136;2022-12-07T02:54:12;99102.72;;;6.71;61.14
54329;BME280;40710;51.120;13.136;2022-12-07T03:02:31;99119.38;;;5.55;63.00
54329;BME280;40710;51.120;13.136;2022-12-07T03:10:58;99098.44;;;6.70;60.15
54329;BME280;40710;51.120;13.136;2022-12-07T03:16:08;99122.06;;;4.51;66.83
54329;BME280;40710;51.120;13.136;2022-12-07T03:18:45;99118.69;;;5.26;66.08
54329;BME280;40710;51.120;13.136;2022-12-07T03:21:16;99102.31;;;5.46;63.08
54329;BME280;40710;51.120;13.136;2022-12-07T03:23:48;99122.00;;;4.79;65.73
54329;BME280;40710;51.120;13.136;2022-12-07T03:26:17;99088.97;;;6.45;62.01
54329;BME280;40710;51.120;13.136;2022-12-07T03:28:50;99090.34;;;5.87;63.12
54329;BME280;40710;51.120;13.136;2022-12-07T03:33:57;99066.63;;;6.60;60.38
54329;BME280;40710;51.120;13.136;2022-12-07T03:36:35;99068.00;;;6.26;60.83
54329;BME280;40710;51.120;13.136;2022-12-07T03:41:45;99060.56;;;6.59;60.23
54329;BME280;40710;51.120;13.136;2022-12-07T03:44:10;99060.63;;;6.36;60.32
54329;BME280;40710;51.120;13.136;2022-12-07T03:46:41;99081.78;;;4.88;64.82
54329;BME280;40710;51.120;13.136;2022-12-07T03:51:52;99092.44;;;4.28;67.72
54329;BME280;40710;51.120;13.136;2022-12-07T03:54:24;99053.63;;;6.99;60.39
54329;BME280;40710;51.120;13.136;2022-12-07T03:56:52;99070.69;;;4.83;62.49
54329;BME280;40710;51.120;13.136;2022-12-07T03:59:19;99068.59;;;5.65;62.73
54329;BME280;40710;51.120;13.136;2022-12-07T04:01:52;99071.31;;;5.15;65.73
54329;BME280;40710;51.120;13.136;2022-12-07T04:04:17;99067.84;;;4.89;64.96
54329;BME280;40710;51.120;13.136;2022-12-07T04:06:42;99059.06;;;5.17;65.14
54329;BME280;40710;51.120;13.136;2022-12-07T04:09:07;99061.06;;;4.60;64.65
54329;BME280;40710;51.120;13.136;2022-12-07T04:11:31;99058.94;;;4.96;65.65
54329;BME280;40710;51.120;13.136;2022-12-07T04:13:56;99043.78;;;5.07;64.77
54329;BME280;40710;51.120;13.136;2022-12-07T04:16:58;99053.19;;;4.61;66.30
54329;BME280;40710;51.120;13.136;2022-12-07T04:19:30;99027.06;;;5.13;63.84
54329;BME280;40710;51.120;13.136;2022-12-07T04:21:56;99050.28;;;4.17;66.88
54329;BME280;40710;51.120;13.136;2022-12-07T04:24:21;99052.88;;;4.17;67.28
54329;BME280;40710;51.120;13.136;2022-12-07T04:26:46;99030.59;;;5.59;62.90
54329;BME280;40710;51.120;13.136;2022-12-07T04:29:11;99050.94;;;3.97;66.33
54329;BME280;40710;51.120;13.136;2022-12-07T04:31:36;99028.28;;;5.74;64.36
54329;BME280;40710;51.120;13.136;2022-12-07T04:34:00;99018.06;;;5.45;63.01
54329;BME280;40710;51.120;13.136;2022-12-07T04:36:25;99016.06;;;5.52;61.80
54329;BME280;40710;51.120;13.136;2022-12-07T04:38:50;99016.38;;;5.44;63.28
54329;BME280;40710;51.120;13.136;2022-12-07T04:41:16;99006.91;;;6.10;61.40
54329;BME280;40710;51.120;13.136;2022-12-07T04:43:41;99003.56;;;5.15;61.76
54329;BME280;40710;51.120;13.136;2022-12-07T04:46:06;99002.50;;;5.20;62.62
54329;BME280;40710;51.120;13.136;2022-12-07T04:48:32;99013.31;;;5.33;62.39
54329;BME280;40710;51.120;13.136;2022-12-07T04:50:56;99009.34;;;4.99;62.86
54329;BME280;40710;51.120;13.136;2022-12-07T04:53:22;98997.56;;;5.36;62.87
54329;BME280;40710;51.120;13.136;2022-12-07T04:55:46;98990.50;;;5.62;61.50
54329;BME280;40710;51.120;13.136;2022-12-07T04:58:12;98993.81;;;5.43;61.83
54329;BME280;40710;51.120;13.136;2022-12-07T05:00:37;99002.75;;;4.89;62.89
54329;BME280;40710;51.120;13.136;2022-12-07T05:03:02;99002.78;;;4.39;64.25
54329;BME280;40710;51.120;13.136;2022-12-07T05:05:26;98995.59;;;5.19;62.53
54329;BME280;40710;51.120;13.136;2022-12-07T05:07:51;98990.41;;;5.41;62.20
54329;BME280;40710;51.120;13.136;2022-12-07T05:10:15;98989.94;;;5.32;62.58
54329;BME280;40710;51.120;13.136;2022-12-07T05:12:40;98980.44;;;5.53;61.63
54329;BME280;40710;51.120;13.136;2022-12-07T05:15:05;98974.25;;;5.77;60.92
54329;BME280;40710;51.120;13.136;2022-12-07T05:17:29;98977.47;;;6.06;60.92
54329;BME280;40710;51.120;13.136;2022-12-07T05:19:54;98980.69;;;4.99;61.44
54329;BME280;40710;51.120;13.136;2022-12-07T05:22:19;98980.75;;;5.89;59.92
54329;BME280;40710;51.120;13.136;2022-12-07T05:24:43;98962.22;;;5.97;59.17
54329;BME280;40710;51.120;13.136;2022-12-07T05:27:08;98956.19;;;5.95;59.76
54329;BME280;40710;51.120;13.136;2022-12-07T05:29:36;98959.13;;;6.30;59.63
54329;BME280;40710;51.120;13.136;2022-12-07T05:32:00;98958.84;;;6.15;59.47
54329;BME280;40710;51.120;13.136;2022-12-07T05:34:25;98965.22;;;5.86;59.63
54329;BME280;40710;51.120;13.136;2022-12-07T05:36:49;98974.75;;;5.65;61.06
54329;BME280;40710;51.120;13.136;2022-12-07T05:39:14;98961.94;;;6.03;60.02
54329;BME280;40710;51.120;13.136;2022-12-07T05:41:39;98962.25;;;5.73;61.25
54329;BME280;40710;51.120;13.136;2022-12-07T05:44:22;98980.97;;;5.15;62.59
54329;BME280;40710;51.120;13.136;2022-12-07T05:46:46;98963.53;;;6.07;61.61
54329;BME280;40710;51.120;13.136;2022-12-07T05:49:11;98979.75;;;5.69;63.36
54329;BME280;40710;51.120;13.136;2022-12-07T05:51:35;98959.09;;;6.09;62.56
54329;BME280;40710;51.120;13.136;2022-12-07T05:54:00;98961.31;;;5.98;62.19
54329;BME280;40710;51.120;13.136;2022-12-07T05:56:25;98972.88;;;4.99;65.54
54329;BME280;40710;51.120;13.136;2022-12-07T05:58:50;98962.78;;;5.14;65.08
54329;BME280;40710;51.120;13.136;2022-12-07T06:01:33;98973.56;;;4.81;65.92
54329;BME280;40710;51.120;13.136;2022-12-07T06:04:01;98972.66;;;5.29;65.75
54329;BME280;40710;51.120;13.136;2022-12-07T06:06:26;98976.00;;;5.55;65.32
54329;BME280;40710;51.120;13.136;2022-12-07T06:08:50;98970.50;;;5.84;64.65
54329;BME280;40710;51.120;13.136;2022-12-07T06:11:15;98980.69;;;4.99;66.42
54329;BME280;40710;51.120;13.136;2022-12-07T06:13:58;98982.69;;;5.62;66.13
54329;BME280;40710;51.120;13.136;2022-12-07T06:16:23;98975.28;;;5.73;64.90
54329;BME280;40710;51.120;13.136;2022-12-07T06:18:47;98981.66;;;5.66;65.92
54329;BME280;40710;51.120;13.136;2022-12-07T06:21:12;98975.81;;;5.37;66.47
54329;BME280;40710;51.120;13.136;2022-12-07T06:23:37;98965.16;;;6.10;64.48
54329;BME280;40710;51.120;13.136;2022-12-07T06:26:01;98982.72;;;4.42;68.26
54329;BME280;40710;51.120;13.136;2022-12-07T06:28:26;98996.56;;;4.93;70.15
54329;BME280;40710;51.120;13.136;2022-12-07T06:30:58;98981.53;;;5.23;66.67
54329;BME280;40710;51.120;13.136;2022-12-07T06:33:23;99013.53;;;4.28;70.01
54329;BME280;40710;51.120;13.136;2022-12-07T06:35:48;99010.63;;;4.37;70.87
54329;BME280;40710;51.120;13.136;2022-12-07T06:38:12;99008.25;;;4.29;71.74
54329;BME280;40710;51.120;13.136;2022-12-07T06:40:37;99004.69;;;4.59;70.62
54329;BME280;40710;51.120;13.136;2022-12-07T06:43:01;98999.94;;;4.95;69.67
54329;BME280;40710;51.120;13.136;2022-12-07T06:45:26;98997.09;;;4.78;68.98
54329;BME280;40710;51.120;13.136;2022-12-07T06:47:50;99005.09;;;4.71;69.27
54329;BME280;40710;51.120;13.136;2022-12-07T06:50:15;99018.31;;;4.13;71.05
54329;BME280;40710;51.120;13.136;2022-12-07T06:52:39;99012.13;;;4.69;70.58
54329;BME280;40710;51.120;13.136;2022-12-07T06:55:04;99003.91;;;5.29;68.93
54329;BME280;40710;51.120;13.136;2022-12-07T06:57:29;98993.69;;;5.46;67.96
54329;BME280;40710;51.120;13.136;2022-12-07T06:59:53;98988.88;;;5.81;66.88
54329;BME280;40710;51.120;13.136;2022-12-07T07:02:18;99003.69;;;5.11;69.23
54329;BME280;40710;51.120;13.136;2022-12-07T07:04:42;99005.34;;;4.89;69.14
54329;BME280;40710;51.120;13.136;2022-12-07T07:07:07;98997.75;;;5.32;68.93
54329;BME280;40710;51.120;13.136;2022-12-07T07:09:31;99009.06;;;4.58;69.79
54329;BME280;40710;51.120;13.136;2022-12-07T07:11:56;99015.31;;;4.78;71.81
54329;BME280;40710;51.120;13.136;2022-12-07T07:14:20;98995.72;;;5.62;68.92
54329;BME280;40710;51.120;13.136;2022-12-07T07:16:46;99015.78;;;4.89;70.61
54329;BME280;40710;51.120;13.136;2022-12-07T07:19:10;99005.41;;;5.58;68.28
54329;BME280;40710;51.120;13.136;2022-12-07T07:21:36;99012.34;;;5.81;68.76
54329;BME280;40710;51.120;13.136;2022-12-07T07:24:00;99017.81;;;5.29;70.77
54329;BME280;40710;51.120;13.136;2022-12-07T07:26:25;99002.22;;;5.96;68.17
54329;BME280;40710;51.120;13.136;2022-12-07T07:28:50;99010.69;;;5.57;69.09
54329;BME280;40710;51.120;13.136;2022-12-07T07:31:14;99013.19;;;5.82;68.19
54329;BME280;40710;51.120;13.136;2022-12-07T07:33:39;99011.09;;;5.46;69.39
54329;BME280;40710;51.120;13.136;2022-12-07T07:36:04;99021.91;;;4.88;70.56
54329;BME280;40710;51.120;13.136;2022-12-07T07:38:28;99027.91;;;5.14;70.14
54329;BME280;40710;51.120;13.136;2022-12-07T07:40:53;99013.38;;;5.99;68.35
54329;BME280;40710;51.120;13.136;2022-12-07T07:43:17;99014.06;;;5.59;68.30
54329;BME280;40710;51.120;13.136;2022-12-07T07:45:42;99016.63;;;5.38;68.63
54329;BME280;40710;51.120;13.136;2022-12-07T07:48:07;99026.69;;;5.47;69.37
54329;BME280;40710;51.120;13.136;2022-12-07T07:50:31;99017.91;;;5.94;67.64
54329;BME280;40710;51.120;13.136;2022-12-07T07:52:57;99025.25;;;5.15;70.26
54329;BME280;40710;51.120;13.136;2022-12-07T07:55:21;99027.47;;;6.17;68.11
54329;BME280;40710;51.120;13.136;2022-12-07T07:57:46;99029.91;;;5.76;69.04
54329;BME280;40710;51.120;13.136;2022-12-07T08:00:14;99024.75;;;5.53;68.96
54329;BME280;40710;51.120;13.136;2022-12-07T08:02:39;99021.22;;;5.54;69.17
54329;BME280;40710;51.120;13.136;2022-12-07T08:05:04;99019.84;;;5.67;68.79
54329;BME280;40710;51.120;13.136;2022-12-07T08:07:29;99021.34;;;5.51;69.64
54329;BME280;40710;51.120;13.136;2022-12-07T08:09:54;99024.56;;;5.57;69.43
54329;BME280;40710;51.120;13.136;2022-12-07T08:12:18;99014.47;;;5.72;68.75
54329;BME280;40710;51.120;13.136;2022-12-07T08:14:43;99000.25;;;5.57;68.34
54329;BME280;40710;51.120;13.136;2022-12-07T08:17:07;99011.44;;;5.82;69.00
54329;BME280;40710;51.120;13.136;2022-12-07T08:19:33;99009.72;;;5.81;68.84
54329;BME280;40710;51.120;13.136;2022-12-07T08:21:57;99006.22;;;5.82;69.02
54329;BME280;40710;51.120;13.136;2022-12-07T08:24:22;99019.91;;;5.65;69.88
54329;BME280;40710;51.120;13.136;2022-12-07T08:26:47;99014.94;;;5.81;68.86
54329;BME280;40710;51.120;13.136;2022-12-07T08:29:12;99009.50;;;5.87;69.69
54329;BME280;40710;51.120;13.136;2022-12-07T08:31:37;99012.88;;;5.45;70.82
54329;BME280;40710;51.120;13.136;2022-12-07T08:34:02;99008.66;;;5.65;69.85
54329;BME280;40710;51.120;13.136;2022-12-07T08:36:27;98983.00;;;7.01;65.79
54329;BME280;40710;51.120;13.136;2022-12-07T08:38:51;98997.06;;;5.72;67.44
54329;BME280;40710;51.120;13.136;2022-12-07T08:41:16;98997.22;;;6.34;67.54
54329;BME280;40710;51.120;13.136;2022-12-07T08:43:41;98993.56;;;6.17;66.66
54329;BME280;40710;51.120;13.136;2022-12-07T08:46:09;99004.00;;;6.38;66.58
54329;BME280;40710;51.120;13.136;2022-12-07T08:48:44;99000.56;;;6.58;66.66
54329;BME280;40710;51.120;13.136;2022-12-07T08:51:10;98995.94;;;6.65;66.46
54329;BME280;40710;51.120;13.136;2022-12-07T08:53:37;98990.84;;;6.61;66.03
54329;BME280;40710;51.120;13.136;2022-12-07T08:56:03;99001.59;;;6.54;66.64
54329;BME280;40710;51.120;13.136;2022-12-07T08:58:28;98983.28;;;7.71;63.11
54329;BME280;40710;51.120;13.136;2022-12-07T09:00:53;98974.69;;;8.23;61.34
54329;BME280;40710;51.120;13.136;2022-12-07T09:03:17;98979.91;;;7.50;62.74
54329;BME280;40710;51.120;13.136;2022-12-07T09:05:42;98976.31;;;8.43;60.89
54329;BME280;40710;51.120;13.136;2022-12-07T09:08:07;98973.72;;;8.43;61.13
54329;BME280;40710;51.120;13.136;2022-12-07T09:10:32;98956.50;;;8.72;58.77
54329;BME280;40710;51.120;13.136;2022-12-07T09:12:57;98967.63;;;8.93;58.65
54329;BME280;40710;51.120;13.136;2022-12-07T09:15:25;98971.63;;;8.49;60.47
54329;BME280;40710;51.120;13.136;2022-12-07T09:17:49;98976.22;;;8.09;60.39
54329;BME280;40710;51.120;13.136;2022-12-07T09:20:16;98971.63;;;8.49;60.28
54329;BME280;40710;51.120;13.136;2022-12-07T09:22:40;98983.88;;;7.02;62.50
54329;BME280;40710;51.120;13.136;2022-12-07T09:25:05;98994.00;;;7.66;62.12
54329;BME280;40710;51.120;13.136;2022-12-07T09:27:30;98997.03;;;7.19;63.10
54329;BME280;40710;51.120;13.136;2022-12-07T09:29:55;99000.69;;;7.15;63.97
54329;BME280;40710;51.120;13.136;2022-12-07T09:32:19;98996.22;;;7.93;62.49
54329;BME280;40710;51.120;13.136;2022-12-07T09:34:44;98994.19;;;7.62;61.73
54329;BME280;40710;51.120;13.136;2022-12-07T09:37:09;98995.91;;;7.44;62.15
54329;BME280;40710;51.120;13.136;2022-12-07T09:39:34;98988.25;;;8.66;60.01
54329;BME280;40710;51.120;13.136;2022-12-07T09:42:03;98972.72;;;9.45;57.68
54329;BME280;40710;51.120;13.136;2022-12-07T09:44:28;98987.97;;;8.55;60.15
54329;BME280;40710;51.120;13.136;2022-12-07T09:46:53;98972.75;;;9.12;58.40
54329;BME280;40710;51.120;13.136;2022-12-07T09:49:20;98980.97;;;8.19;60.43
54329;BME280;40710;51.120;13.136;2022-12-07T09:51:47;98978.69;;;8.82;59.39
54329;BME280;40710;51.120;13.136;2022-12-07T09:54:14;98942.34;;;10.64;55.32
54329;BME280;40710;51.120;13.136;2022-12-07T09:56:40;98960.44;;;9.46;56.49
54329;BME280;40710;51.120;13.136;2022-12-07T09:59:05;98957.47;;;9.20;58.14
54329;BME280;40710;51.120;13.136;2022-12-07T10:01:32;98970.84;;;8.30;60.36
54329;BME280;40710;51.120;13.136;2022-12-07T10:04:14;98956.28;;;9.26;58.71
54329;BME280;40710;51.120;13.136;2022-12-07T10:06:39;98968.59;;;8.05;61.22
54329;BME280;40710;51.120;13.136;2022-12-07T10:09:22;98969.94;;;8.31;61.67
54329;BME280;40710;51.120;13.136;2022-12-07T10:12:10;98972.41;;;7.80;63.28
54329;BME280;40710;51.120;13.136;2022-12-07T10:14:39;98970.41;;;7.85;62.85
54329;BME280;40710;51.120;13.136;2022-12-07T10:17:26;98965.75;;;8.27;63.26
54329;BME280;40710;51.120;13.136;2022-12-07T10:22:35;98963.31;;;7.51;64.08
54329;BME280;40710;51.120;13.136;2022-12-07T10:25:08;98954.91;;;8.00;62.09
54329;BME280;40710;51.120;13.136;2022-12-07T10:27:33;98961.75;;;7.47;63.42
54329;BME280;40710;51.120;13.136;2022-12-07T10:29:59;98965.38;;;7.25;64.54
54329;BME280;40710;51.120;13.136;2022-12-07T10:32:35;98976.28;;;6.95;65.48
54329;BME280;40710;51.120;13.136;2022-12-07T10:35:20;98968.59;;;7.68;64.34
54329;BME280;40710;51.120;13.136;2022-12-07T10:37:45;98964.09;;;7.53;63.56
54329;BME280;40710;51.120;13.136;2022-12-07T10:40:36;98953.13;;;8.00;63.70
54329;BME280;40710;51.120;13.136;2022-12-07T10:43:21;98961.22;;;7.21;64.18
54329;BME280;40710;51.120;13.136;2022-12-07T10:46:18;98939.44;;;8.12;62.34
54329;BME280;40710;51.120;13.136;2022-12-07T10:48:57;98951.31;;;7.83;63.82
54329;BME280;40710;51.120;13.136;2022-12-07T10:51:45;98964.59;;;7.42;64.29
54329;BME280;40710;51.120;13.136;2022-12-07T10:57:06;98948.47;;;7.88;65.43
54329;BME280;40710;51.120;13.136;2022-12-07T11:00:02;98934.66;;;8.38;63.67
54329;BME280;40710;51.120;13.136;2022-12-07T11:05:23;98946.66;;;7.34;65.83
54329;BME280;40710;51.120;13.136;2022-12-07T11:11:14;98947.56;;;7.14;65.13
54329;BME280;40710;51.120;13.136;2022-12-07T11:13:44;98942.41;;;7.51;65.54
54329;BME280;40710;51.120;13.136;2022-12-07T11:16:38;98937.09;;;8.24;63.51
54329;BME280;40710;51.120;13.136;2022-12-07T11:19:32;98930.56;;;8.15;62.63
54329;BME280;40710;51.120;13.136;2022-12-07T11:22:17;98931.56;;;8.12;62.85
54329;BME280;40710;51.120;13.136;2022-12-07T11:24:59;98939.03;;;7.11;64.76
54329;BME280;40710;51.120;13.136;2022-12-07T11:27:36;98930.41;;;8.01;63.60
54329;BME280;40710;51.120;13.136;2022-12-07T11:30:11;98932.25;;;8.16;62.68
54329;BME280;40710;51.120;13.136;2022-12-07T11:35:30;98925.66;;;8.26;62.18
54329;BME280;40710;51.120;13.136;2022-12-07T11:38:17;98916.75;;;8.64;61.27
54329;BME280;40710;51.120;13.136;2022-12-07T11:40:58;98913.94;;;8.33;61.70
54329;BME280;40710;51.120;13.136;2022-12-07T11:43:37;98934.19;;;7.95;62.15
54329;BME280;40710;51.120;13.136;2022-12-07T11:46:11;98933.28;;;7.60;63.32
54329;BME280;40710;51.120;13.136;2022-12-07T11:48:43;98937.78;;;7.75;64.30
54329;BME280;40710;51.120;13.136;2022-12-07T11:51:11;98927.94;;;8.15;63.54
54329;BME280;40710;51.120;13.136;2022-12-07T11:53:49;98922.72;;;8.50;62.20
54329;BME280;40710;51.120;13.136;2022-12-07T11:56:23;98922.63;;;8.17;62.81
54329;BME280;40710;51.120;13.136;2022-12-07T11:59:03;98926.56;;;8.25;62.57
54329;BME280;40710;51.120;13.136;2022-12-07T12:06:33;98913.53;;;8.24;62.73
54329;BME280;40710;51.120;13.136;2022-12-07T12:17:30;98909.47;;;7.83;64.31
54329;BME280;40710;51.120;13.136;2022-12-07T12:25:50;98911.56;;;7.21;65.24
54329;BME280;40710;51.120;13.136;2022-12-07T12:28:55;98915.66;;;7.08;66.30
54329;BME280;40710;51.120;13.136;2022-12-07T12:31:41;98910.50;;;7.25;65.32
54329;BME280;40710;51.120;13.136;2022-12-07T12:42:51;98901.56;;;6.53;65.05
54329;BME280;40710;51.120;13.136;2022-12-07T12:45:34;98895.84;;;7.59;63.40
54329;BME280;40710;51.120;13.136;2022-12-07T12:48:29;98906.09;;;7.26;64.63
54329;BME280;40710;51.120;13.136;2022-12-07T12:51:40;98900.97;;;7.24;63.67
54329;BME280;40710;51.120;13.136;2022-12-07T12:54:20;98890.38;;;6.89;64.42
54329;BME280;40710;51.120;13.136;2022-12-07T12:57:12;98890.78;;;7.18;63.66
54329;BME280;40710;51.120;13.136;2022-12-07T13:00:00;98882.91;;;7.73;63.24
54329;BME280;40710;51.120;13.136;2022-12-07T13:02:32;98888.47;;;7.48;62.67
54329;BME280;40710;51.120;13.136;2022-12-07T13:05:23;98888.22;;;7.35;64.01
54329;BME280;40710;51.120;13.136;2022-12-07T13:07:58;98894.19;;;7.01;64.28
54329;BME280;40710;51.120;13.136;2022-12-07T13:15:53;98889.53;;;7.81;63.06
54329;BME280;40710;51.120;13.136;2022-12-07T13:23:28;98878.47;;;8.45;61.87
54329;BME280;40710;51.120;13.136;2022-12-07T13:31:20;98876.38;;;8.17;61.59
54329;BME280;40710;51.120;13.136;2022-12-07T13:33:48;98880.25;;;7.75;62.55
54329;BME280;40710;51.120;13.136;2022-12-07T13:36:22;98873.38;;;8.25;60.87
54329;BME280;40710;51.120;13.136;2022-12-07T13:38:58;98865.78;;;8.54;60.82
54329;BME280;40710;51.120;13.136;2022-12-07T13:41:26;98857.13;;;8.85;60.09
54329;BME280;40710;51.120;13.136;2022-12-07T13:44:01;98856.13;;;8.87;59.08
54329;BME280;40710;51.120;13.136;2022-12-07T13:49:44;98857.63;;;8.60;59.71
54329;BME280;40710;51.120;13.136;2022-12-07T13:54:46;98865.84;;;8.01;60.71
54329;BME280;40710;51.120;13.136;2022-12-07T13:57:11;98867.53;;;8.02;59.94
54329;BME280;40710;51.120;13.136;2022-12-07T13:59:36;98853.63;;;8.35;59.06
54329;BME280;40710;51.120;13.136;2022-12-07T14:02:22;98868.53;;;7.82;60.34
54329;BME280;40710;51.120;13.136;2022-12-07T14:04:50;98857.22;;;7.99;60.22
54329;BME280;40710;51.120;13.136;2022-12-07T14:09:57;98855.75;;;7.93;59.82
54329;BME280;40710;51.120;13.136;2022-12-07T14:12:24;98865.22;;;7.61;60.77
54329;BME280;40710;51.120;13.136;2022-12-07T14:14:49;98853.19;;;8.27;59.67
54329;BME280;40710;51.120;13.136;2022-12-07T14:17:22;98841.94;;;8.92;57.16
54329;BME280;40710;51.120;13.136;2022-12-07T14:19:56;98853.69;;;7.65;59.77
54329;BME280;40710;51.120;13.136;2022-12-07T14:22:26;98870.13;;;7.31;61.51
54329;BME280;40710;51.120;13.136;2022-12-07T14:25:09;98867.88;;;7.42;61.30
54329;BME280;40710;51.120;13.136;2022-12-07T14:27:36;98861.25;;;7.89;60.40
54329;BME280;40710;51.120;13.136;2022-12-07T14:30:02;98872.44;;;7.19;61.30
54329;BME280;40710;51.120;13.136;2022-12-07T14:32:28;98839.13;;;8.63;57.31
54329;BME280;40710;51.120;13.136;2022-12-07T14:35:00;98860.97;;;8.11;59.36
54329;BME280;40710;51.120;13.136;2022-12-07T14:37:25;98863.34;;;7.46;60.21
54329;BME280;40710;51.120;13.136;2022-12-07T14:39:50;98859.59;;;7.86;59.87
54329;BME280;40710;51.120;13.136;2022-12-07T14:42:15;98859.53;;;7.70;59.48
54329;BME280;40710;51.120;13.136;2022-12-07T14:44:39;98865.94;;;7.82;59.34
54329;BME280;40710;51.120;13.136;2022-12-07T14:47:04;98860.22;;;7.56;59.87